Portada
METAR-TAF:

METAR-TAF

Aeropuertos :

Gladstone, Australia

latitud: 23-52-11S, longitud: 151-13-22E, altitud: 18 m

Observación

El informe se hizo hace 19 minutos, a las 21:30 UTC
Viento 6 kt del sur-suroeste
Temperatura 13°C
Humedad 88%
Presión 1024 hPa
Visibilidad 10 km o más

METAR: YGLA 232130Z AUTO 21006KT 9999 // NCD 13/11 Q1024 RF00.0/000.0

Hora: 07:49 (21:49 UTC)

Pronóstico

El informe se hizo hace 5 horas y 13 minutos, a las 16:36 UTC
Pronóstico válido del 23 a las 18 UTC al 24 a las 06 UTC
Viento 5 kt del sur-suroeste
Visibilidad 10 km o más
Escasas nubes a una altura de 2500 ft
A partir de las 24 a las 0000 UTC
Viento 12 kt del este-sureste
Visibilidad 10 km o más
Escasas nubes a una altura de 3500 ft

TAF: YGLA 231636Z 2318/2406 20005KT 9999 FEW025 FM240000 12012KT 9999 FEW035

Observaciones y pronósticos meteorológicos de más de 4000 aeropuertos (mensajes METAR y TAF).

Los puntos amarillos y rojos representan las estaciones disponibles.

Ponga el ratón en el punto deseado para ver el nombre de la estación.

Haga clic para ver las observaciones y los pronósticos meteorológicos.

Para cambiar el mapa : haga clic en los botones verdes con una cruz de color negro para hacer un zoom, en el botón verde con un guión para alejar o en las flechas verdes para mapas adyacentes.


METAR-TAF: